WEATHER DATA

TODAY
Time Temp. Dewp. Hum. Wind dir Wind speed Wind gust Bar. 1h Prec. 24h Prec.
00:03 15.4 11 75 0 0 1013.9 0.0000 0.0000
00:14 15.2 11 76 0 0 1014.1 0.0000 0.0000
00:24 15 10.8 76 0 0 1014.1 0.0000 0.0000
00:33 14.9 10.9 77 0 0 1014.3 0.0000 0.0000
00:44 14.8 10.8 77 0 0 1014.1 0.0000 0.0000
00:54 14.6 10.8 78 0 0 1013.9 0.0000 0.0000
01:04 14.6 10.8 78 0 0 1014.1 0.0000 0.0000
01:14 14.5 10.9 79 0 0 1014 0.0000 0.0000
01:24 14.5 10.9 79 0 0 1014 0.0000 0.0000
01:34 14.4 11 80 0 0 1014 0.0000 0.0000
01:44 14.3 10.9 80 0 0 1014 0.0000 0.0000
01:54 14.2 10.8 80 0 0 1013.9 0.0000 0.0000
02:05 14.2 11 81 0 0 1013.8 0.0000 0.0000
02:14 14.1 10.9 81 0 0 1013.9 0.0000 0.0000
02:24 14 10.8 81 0 0 1013.9 0.0000 0.0000
02:35 13.9 10.7 81 0 0 1013.8 0.0000 0.0000
02:45 13.8 10.6 81 0 0 1013.7 0.0000 0.0000
02:55 13.7 10.7 82 0 0 1013.6 0.0000 0.0000
03:05 13.6 10.6 82 0 0 1013.8 0.0000 0.0000
03:15 13.5 10.5 82 0 0 1013.6 0.0000 0.0000
03:25 13.4 10.4 82 0 0 1013.7 0.0000 0.0000
03:35 13.3 10.3 82 0 0 1013.6 0.0000 0.0000
03:46 13.2 10.4 83 0 0 1013.7 0.0000 0.0000
03:55 13.1 10.3 83 0 0 1013.6 0.0000 0.0000
04:05 13 10.4 84 0 0 1013.5 0.0000 0.0000
04:15 13 10.4 84 0 0 1013.5 0.0000 0.0000
04:26 12.9 10.3 84 0 0 1013.5 0.0000 0.0000
04:36 12.9 10.3 84 0 0 1013.6 0.0000 0.0000
05:01 12.9 10.4 85 0 0 1013.5 0.0000 0.0000
05:11 13.1 10.8 86 0 0 1013.5 0.0000 0.0000
05:21 13.4 11.3 87 0 0 1013.5 0.0000 0.0000
05:31 13.6 11.5 87 0 0 1013.6 0.0000 0.0000
05:41 13.8 11.5 86 0 0 1013.3 0.0000 0.0000
05:51 14.2 12.1 87 0 0 1013.3 0.0000 0.0000
06:01 14.8 12.7 87 0 0 1013.3 0.0000 0.0000
06:12 15.2 13.1 87 0 0 1013.3 0.0000 0.0000
06:21 15.9 13.7 87 0 0 1013.3 0.0000 0.0000
06:31 16.5 14 85 0 0 1013.4 0.0000 0.0000
06:42 16.9 14.2 84 0 0 1013.3 0.0000 0.0000
06:52 17.3 14.2 82 0 0 1013.4 0.0000 0.0000
07:02 17.6 14.3 81 0 0 1013.3 0.0000 0.0000
07:11 17.7 14.2 80 0 0 1013.4 0.0000 0.0000
07:22 17.9 14.4 80 0 0 1013.3 0.0000 0.0000
07:32 18.1 14.6 80 0 0 1013.3 0.0000 0.0000
07:42 18.5 15 80 0 0 1013.3 0.0000 0.0000
08:02 18.4 14.3 77 0 0 1013.3 0.0000 0.0000
08:12 18.2 14.1 77 0 0 1013.2 0.0000 0.0000
08:22 17.9 14 78 0 0 1013.4 0.0000 0.0000
08:33 17.8 14.3 80 0 0 1013.2 0.0000 0.0000
08:52 18.8 14.9 78 0 0 1013.2 0.0000 0.0000
09:03 19 14.7 76 0 0 1013.1 0.0000 0.0000
09:13 19.1 14.6 75 0 0 1013 0.0000 0.0000
09:23 19.3 14.6 74 0 0 1013.1 0.0000 0.0000
09:32 19.4 14.2 72 0 0 1013.1 0.0000 0.0000
09:53 19.1 13.9 72 0 0 1013.1 0.1010 0.1000
09:56 19 14.1 73 0 0 1013.2 0.3030 0.3000
10:05 18.5 14.2 76 0 0 1013.2 0.7070 0.7000
10:15 17.7 13.8 78 0 0 1013 2.2220 2.2000
10:25 17.3 14 81 0 0 1013 4.7470 4.7000
10:36 16.4 12.8 79 0 0 1013 9.0900 9.1000
10:45 15.6 12.4 81 0 0 1013.2 9.4940 9.6000
10:55 15.2 12.5 84 0 0 1013 9.0900 9.6000
11:06 15 12.5 85 0 0 1012.8 7.7770 9.6000
11:16 14.9 12.8 87 0 0 1012.8 7.2720 9.6000
11:26 15 13 88 0 0 1012.7 3.5350 9.6000
11:35 15.2 13.4 89 0 0 1012.7 0.0000 9.6000
11:46 15.9 14.4 91 0 0 1012.4 0.0000 9.6000
11:56 16.3 14.7 90 0 0 1012.5 0.0000 9.6000
12:06 17 15.2 89 0 0 1012.5 0.0000 9.6000
12:16 17.5 15.1 86 0 0 1012.3 0.0000 9.6000
12:26 17.9 15.2 84 0 0 1012.2 0.0000 9.6000
12:36 18.3 14.6 79 0 0 1012.3 0.0000 9.6000
12:46 18.6 14.3 76 0 0 1012.3 0.0000 9.6000
12:57 18.9 14.6 76 0 0 1012.4 0.0000 9.6000
13:07 19.6 14.8 74 0 0 1012.3 0.0000 9.6000
13:16 20.2 14.8 71 0 0 1012.3 0.0000 9.6000
13:27 20.5 14.4 68 0 0 1012.4 0.0000 9.6000
13:37 20.5 14.2 67 0 0 1012.4 0.0000 9.6000
13:47 20.4 14.1 67 0 0 1012.5 0.0000 9.6000
13:57 20.3 14 67 0 0 1012.3 0.0000 9.6000
14:07 20.9 14.3 66 0 0 1012.4 0.0000 9.6000
14:17 21.7 14.1 62 0 0 1012.3 0.0000 9.6000
14:27 21.9 13.5 59 0 0 1012.2 0.0000 9.6000
14:37 22.1 13.7 59 0 0 1012.3 0.0000 9.6000
14:47 22.2 13.8 59 0 0 1012.2 0.0000 9.6000
14:57 22.4 13.5 57 0 0 1012.2 0.0000 9.6000
15:07 22.3 13.1 56 0 0 1012.3 0.0000 9.6000
15:18 22.1 12.6 55 0 0 1012.5 0.0000 9.6000
15:28 22.1 12.9 56 0 0 1012.3 0.0000 9.6000
15:37 22.1 12.9 56 0 0 1012.4 0.0000 9.6000
15:48 22.2 13.3 57 0 0 1012.4 0.0000 9.6000
15:58 22 13.1 57 0 0 1012.4 0.0000 9.6000
16:08 21.5 12.4 56 0 0 1012.2 0.0000 9.6000
16:18 21.4 12.5 57 0 0 1012.3 0.0000 9.6000

DAY STATISTIC

2022-07-06
TEMPERATURE
AVERAGE
17.0
HIGH
22.4
14:57
LOW
12.9
04:26
PRESSURE
AVERAGE
1013.1
HIGH
1014.3
00:33
LOW
1012.2
12:26
DEWPOINT
AVERAGE
12.8
HIGH
15.2
12:06
LOW
10.3
03:35
HUMIDITY
AVERAGE
77
HIGH
91
11:46
LOW
55
15:18
WIND SPEED
AVERAGE
0.0
HIGH
0.0
13:25
WIND GUST
AVERAGE
0.0
HIGH
0.0
13:25
WIND DIRECTION
PREVAILING
%
PRECIPITATION
RAIN HOUR
9.5
RAIN DAY
9.6
TEMPERATURE (°C)
LOW
12.9
HIGH
22.4
AVERAGE
17.0
PRESSURE (hpa)
LOW
1012.2
HIGH
1014.3
AVERAGE
1013.1
DEVICE